Time;durP1;ratioP1;P1;durP2;ratioP2;P2;SDS_P1;SDS_P2;PMS_P1;PMS_P2;Temp;Humidity;BMP_temperature;BMP_pressure;BME280_temperature;BME280_humidity;BME280_pressure;Samples;Min_cycle;Max_cycle;Signal;HPM_P1;HPM_P2
2022/01/04 00:01:20;;;;;;;6.57;1.20;;;8.00;99.90;;;;;;5019590;28;20519;-52
2022/01/04 00:03:48;;;;;;;2.20;1.17;;;8.00;99.90;;;;;;5019633;28;20443;-55
2022/01/04 00:06:18;;;;;;;1.40;0.80;;;8.00;99.90;;;;;;5019661;28;20464;-53
2022/01/04 00:08:45;;;;;;;2.33;1.23;;;8.00;99.90;;;;;;5019565;28;20511;-53
2022/01/04 00:11:17;;;;;;;1.40;1.10;;;8.10;99.90;;;;;;5020316;28;20489;-55
2022/01/04 00:13:44;;;;;;;1.30;0.90;;;8.10;99.90;;;;;;5020230;28;20501;-56
2022/01/04 00:16:12;;;;;;;2.07;0.97;;;8.10;99.90;;;;;;5020354;28;20539;-54
2022/01/04 00:18:39;;;;;;;2.37;1.23;;;8.10;99.90;;;;;;5022347;28;20467;-52
2022/01/04 00:21:09;;;;;;;2.00;1.23;;;8.20;99.90;;;;;;5021557;28;20449;-53
2022/01/04 00:23:38;;;;;;;2.73;1.27;;;8.20;99.90;;;;;;5021010;28;20450;-55
2022/01/04 00:26:05;;;;;;;3.40;1.07;;;8.20;99.90;;;;;;5021617;28;20473;-54
2022/01/04 00:28:32;;;;;;;4.23;1.27;;;8.10;99.90;;;;;;5021088;28;20481;-55
2022/01/04 00:30:59;;;;;;;1.60;1.10;;;8.20;99.90;;;;;;5020779;28;20511;-56
2022/01/04 00:33:25;;;;;;;4.87;1.47;;;8.20;99.90;;;;;;5020908;28;20458;-55
2022/01/04 00:35:52;;;;;;;1.23;0.80;;;8.20;99.90;;;;;;5021004;28;20455;-53
2022/01/04 00:38:21;;;;;;;1.70;1.13;;;8.20;99.90;;;;;;5021095;28;20450;-56
2022/01/04 00:40:49;;;;;;;3.80;1.30;;;8.20;99.90;;;;;;5020718;28;20478;-56
2022/01/04 00:43:16;;;;;;;1.60;1.50;;;8.20;99.90;;;;;;5020657;28;20446;-56
2022/01/04 00:45:45;;;;;;;4.20;1.37;;;8.20;99.90;;;;;;5019777;28;20469;-55
2022/01/04 00:50:56;;;;;;;4.80;1.50;;;8.10;99.90;;;;;;5019597;28;20562;-53
2022/01/04 00:53:23;;;;;;;1.27;1.17;;;8.10;99.90;;;;;;5019551;28;20580;-56
2022/01/04 00:55:51;;;;;;;1.60;0.80;;;8.10;99.90;;;;;;5019104;28;20441;-55
2022/01/04 00:58:17;;;;;;;2.40;0.70;;;8.10;99.90;;;;;;5023260;28;20462;-55
2022/01/04 01:00:44;;;;;;;4.57;1.07;;;8.10;99.90;;;;;;5025720;28;20461;-55
2022/01/04 01:03:11;;;;;;;2.83;1.10;;;8.10;99.90;;;;;;5026208;28;20455;-54
2022/01/04 01:05:38;;;;;;;1.10;0.80;;;8.10;99.90;;;;;;5025557;28;20470;-55
2022/01/04 01:08:05;;;;;;;3.57;1.10;;;8.10;99.90;;;;;;5025789;28;20456;-54
2022/01/04 01:10:45;;;;;;;4.80;1.53;;;8.10;99.90;;;;;;5026353;28;20776;-57
2022/01/04 01:13:15;;;;;;;1.10;0.80;;;8.10;99.90;;;;;;5025290;28;20473;-55
2022/01/04 01:15:45;;;;;;;1.90;1.27;;;8.10;99.90;;;;;;5026206;28;20964;-56
2022/01/04 01:18:12;;;;;;;1.87;0.93;;;8.10;99.90;;;;;;5025946;28;20455;-55
2022/01/04 01:20:39;;;;;;;1.60;0.90;;;8.10;99.90;;;;;;5025409;28;20462;-55
2022/01/04 01:23:06;;;;;;;1.10;0.70;;;8.10;99.90;;;;;;5025322;28;20551;-57
2022/01/04 01:25:33;;;;;;;1.77;1.10;;;8.10;99.90;;;;;;5025270;28;20456;-56
2022/01/04 01:27:59;;;;;;;2.90;0.80;;;8.10;99.90;;;;;;5025810;28;20474;-56
2022/01/04 01:30:29;;;;;;;2.57;1.30;;;8.10;99.90;;;;;;5025253;28;20553;-53
2022/01/04 01:32:56;;;;;;;1.90;1.43;;;8.10;99.90;;;;;;5025466;28;20471;-55
2022/01/04 01:35:23;;;;;;;1.40;0.83;;;8.10;99.90;;;;;;5025083;28;20464;-53
2022/01/04 01:37:50;;;;;;;1.00;0.70;;;8.10;99.90;;;;;;5025628;28;20513;-54
2022/01/04 01:40:16;;;;;;;2.30;0.83;;;8.10;99.90;;;;;;5025026;28;20469;-55
2022/01/04 01:42:43;;;;;;;3.23;1.20;;;8.10;99.90;;;;;;5025682;28;20521;-52
2022/01/04 01:45:16;;;;;;;1.30;1.07;;;8.10;99.90;;;;;;5024837;28;20445;-52
2022/01/04 01:47:45;;;;;;;1.40;0.87;;;8.10;99.90;;;;;;5025162;28;20953;-56
2022/01/04 01:50:13;;;;;;;4.60;0.83;;;8.10;99.90;;;;;;5024707;28;20498;-55
2022/01/04 01:52:41;;;;;;;2.50;2.40;;;8.10;99.90;;;;;;5025161;28;20461;-53
2022/01/04 01:55:10;;;;;;;1.10;0.60;;;8.10;99.90;;;;;;5025431;28;20867;-54
2022/01/04 01:57:37;;;;;;;1.00;0.90;;;8.10;99.90;;;;;;5025832;28;20462;-54
2022/01/04 02:00:06;;;;;;;3.87;1.00;;;8.10;99.90;;;;;;5026777;28;20475;-55
2022/01/04 02:02:33;;;;;;;1.40;0.73;;;8.10;99.90;;;;;;5026046;28;20931;-54
2022/01/04 02:05:01;;;;;;;1.97;0.80;;;8.10;99.90;;;;;;5024910;28;20452;-56
2022/01/04 02:07:30;;;;;;;1.10;1.00;;;8.10;99.90;;;;;;5024552;28;20466;-56
2022/01/04 02:10:02;;;;;;;1.13;0.70;;;8.10;99.90;;;;;;5021800;28;20453;-53
2022/01/04 02:12:31;;;;;;;1.77;1.00;;;8.10;99.90;;;;;;5022169;28;20456;-53
2022/01/04 02:14:58;;;;;;;6.03;1.00;;;8.10;99.90;;;;;;5022712;28;21344;-55
2022/01/04 02:17:25;;;;;;;2.70;1.00;;;8.10;99.90;;;;;;5021740;28;20449;-56
2022/01/04 02:19:54;;;;;;;0.90;0.70;;;8.10;99.90;;;;;;5022234;28;20448;-56
2022/01/04 02:22:21;;;;;;;1.00;0.70;;;8.20;99.90;;;;;;5022143;28;20850;-55
2022/01/04 02:24:47;;;;;;;2.20;1.13;;;8.10;99.90;;;;;;5021813;28;20478;-55
2022/01/04 02:27:15;;;;;;;1.73;0.80;;;8.10;99.90;;;;;;5021638;28;20486;-54
2022/01/04 02:29:44;;;;;;;1.10;0.80;;;8.10;99.90;;;;;;5022070;28;20959;-53
2022/01/04 02:32:11;;;;;;;0.90;0.60;;;8.00;99.90;;;;;;5021413;28;20957;-53
2022/01/04 02:34:39;;;;;;;1.20;0.87;;;8.10;99.90;;;;;;5021813;28;20516;-54
2022/01/04 02:37:08;;;;;;;1.10;1.00;;;8.10;99.90;;;;;;5022101;28;20455;-51
2022/01/04 02:39:36;;;;;;;1.40;1.17;;;8.10;99.90;;;;;;5021527;28;20534;-56
2022/01/04 02:42:04;;;;;;;1.57;0.90;;;8.10;99.90;;;;;;5021425;28;20475;-55
2022/01/04 02:44:31;;;;;;;1.00;0.87;;;8.10;99.90;;;;;;5021599;28;20443;-51
2022/01/04 02:46:57;;;;;;;1.47;1.07;;;8.10;99.90;;;;;;5021610;28;20841;-49
2022/01/04 02:49:24;;;;;;;1.47;0.90;;;8.10;99.90;;;;;;5021418;28;20469;-51
2022/01/04 02:51:51;;;;;;;1.83;0.70;;;8.10;99.90;;;;;;5021396;28;20493;-55
2022/01/04 02:54:19;;;;;;;1.40;0.93;;;8.10;99.90;;;;;;5022453;28;20473;-54
2022/01/04 02:56:46;;;;;;;1.33;1.23;;;8.10;99.90;;;;;;5022259;28;20477;-53
2022/01/04 02:59:13;;;;;;;1.63;0.97;;;8.10;99.90;;;;;;5023285;28;20457;-56
2022/01/04 03:01:39;;;;;;;1.90;0.90;;;8.20;99.90;;;;;;5023184;28;20444;-58
2022/01/04 03:04:07;;;;;;;1.67;1.30;;;8.20;99.90;;;;;;5022481;28;20970;-56
2022/01/04 03:06:36;;;;;;;1.50;0.80;;;8.20;99.90;;;;;;5021607;28;20453;-54
2022/01/04 03:09:04;;;;;;;0.90;0.67;;;8.10;99.90;;;;;;5021025;28;20481;-55
2022/01/04 03:11:33;;;;;;;3.03;1.03;;;8.10;99.90;;;;;;5020061;28;20484;-54
2022/01/04 03:13:59;;;;;;;1.10;0.70;;;8.10;99.90;;;;;;5020792;28;20949;-51
2022/01/04 03:16:26;;;;;;;1.07;0.93;;;8.10;99.90;;;;;;5020818;28;20516;-54
2022/01/04 03:19:09;;;;;;;0.90;0.70;;;8.10;99.90;;;;;;5020314;28;20470;-52
2022/01/04 03:21:37;;;;;;;1.43;1.00;;;8.20;99.90;;;;;;5020163;28;20500;-45
2022/01/04 03:24:05;;;;;;;1.20;0.80;;;8.10;99.90;;;;;;5017948;28;20815;-48
2022/01/04 03:26:34;;;;;;;0.90;0.70;;;8.10;99.90;;;;;;5018603;28;20506;-45
2022/01/04 03:29:01;;;;;;;3.53;0.90;;;8.20;99.90;;;;;;5018474;28;20553;-47
2022/01/04 03:31:29;;;;;;;0.90;0.80;;;8.20;99.90;;;;;;5022214;28;20795;-54
2022/01/04 03:33:56;;;;;;;1.20;0.90;;;8.10;99.90;;;;;;5020624;28;20518;-45
2022/01/04 03:36:24;;;;;;;1.53;0.70;;;8.10;99.90;;;;;;5018617;28;20517;-46
2022/01/04 03:38:51;;;;;;;1.70;1.10;;;8.10;99.90;;;;;;5018397;28;20485;-46
2022/01/04 03:41:19;;;;;;;2.17;0.83;;;8.10;99.90;;;;;;5018478;28;20446;-46
2022/01/04 03:43:47;;;;;;;1.30;1.00;;;8.10;99.90;;;;;;5018591;28;20441;-47
2022/01/04 03:46:14;;;;;;;1.37;0.90;;;8.10;99.90;;;;;;5019164;28;20447;-49
2022/01/04 03:48:41;;;;;;;1.57;0.73;;;8.20;99.90;;;;;;5018162;28;20452;-49
2022/01/04 03:51:08;;;;;;;2.27;0.93;;;8.20;99.90;;;;;;5017525;28;20482;-48
2022/01/04 03:53:35;;;;;;;3.57;1.23;;;8.10;99.90;;;;;;5017622;28;20963;-48
2022/01/04 03:56:02;;;;;;;1.27;0.80;;;8.10;99.90;;;;;;5018203;28;20525;-52
2022/01/04 03:58:28;;;;;;;1.93;1.10;;;8.00;99.90;;;;;;5020941;28;20501;-45
2022/01/04 04:00:57;;;;;;;2.10;1.03;;;8.00;99.90;;;;;;5018993;28;20435;-48
2022/01/04 04:03:23;;;;;;;1.00;0.80;;;8.00;99.90;;;;;;5017700;28;20450;-48
2022/01/04 04:05:50;;;;;;;4.13;0.90;;;8.10;99.90;;;;;;5017518;28;20472;-49
2022/01/04 04:08:17;;;;;;;1.00;0.70;;;8.10;99.90;;;;;;5017739;28;20459;-47
2022/01/04 04:10:44;;;;;;;1.50;0.80;;;8.10;99.90;;;;;;5017739;28;20442;-47
2022/01/04 04:13:11;;;;;;;1.77;0.90;;;8.20;99.90;;;;;;5017480;28;20502;-48
2022/01/04 04:15:40;;;;;;;1.30;1.03;;;8.20;99.90;;;;;;5017686;28;20469;-50
2022/01/04 04:18:09;;;;;;;1.40;1.00;;;8.20;99.90;;;;;;5017438;28;20447;-48
2022/01/04 04:20:37;;;;;;;1.97;1.00;;;8.20;99.90;;;;;;5017365;28;20462;-47
2022/01/04 04:23:04;;;;;;;4.43;1.13;;;8.10;99.90;;;;;;5018455;28;20526;-51
2022/01/04 04:25:31;;;;;;;1.83;1.17;;;8.20;99.90;;;;;;5020285;28;20503;-51
2022/01/04 04:27:58;;;;;;;1.90;1.20;;;8.20;99.90;;;;;;5018928;28;20531;-46
2022/01/04 04:30:25;;;;;;;3.33;1.00;;;8.20;99.90;;;;;;5017257;28;20492;-51
2022/01/04 04:32:51;;;;;;;3.83;2.23;;;8.20;99.90;;;;;;5016461;28;20566;-49
2022/01/04 04:35:19;;;;;;;1.77;0.97;;;8.20;99.90;;;;;;5016925;28;20486;-49
2022/01/04 04:37:46;;;;;;;3.73;1.10;;;8.20;99.90;;;;;;5016615;28;20465;-48
2022/01/04 04:40:13;;;;;;;2.23;1.23;;;8.20;99.90;;;;;;5023069;28;20475;-49
2022/01/04 04:42:40;;;;;;;2.80;1.20;;;8.10;99.90;;;;;;5017191;28;20451;-47
2022/01/04 04:45:08;;;;;;;1.90;1.23;;;8.10;99.90;;;;;;5019417;28;20968;-49
2022/01/04 04:47:36;;;;;;;4.30;1.43;;;8.10;99.90;;;;;;5028135;28;20487;-46
2022/01/04 04:50:04;;;;;;;10.97;1.53;;;8.10;99.90;;;;;;5038410;28;20410;-44
2022/01/04 04:52:32;;;;;;;1.20;1.10;;;8.10;99.90;;;;;;5038349;28;20450;-40
2022/01/04 04:54:58;;;;;;;2.70;1.40;;;8.10;99.90;;;;;;5038242;28;20459;-42
2022/01/04 04:57:25;;;;;;;2.63;1.33;;;8.10;99.90;;;;;;5038094;28;20423;-40
2022/01/04 04:59:51;;;;;;;2.33;1.20;;;8.10;99.90;;;;;;5038215;28;20444;-42
2022/01/04 05:02:22;;;;;;;1.87;1.40;;;8.20;99.90;;;;;;5038006;28;20518;-45
2022/01/04 05:04:50;;;;;;;4.03;1.57;;;8.10;99.90;;;;;;5038053;28;20413;-44
2022/01/04 05:07:19;;;;;;;4.00;1.37;;;8.10;99.90;;;;;;5038058;28;20451;-43
2022/01/04 05:09:47;;;;;;;2.13;1.53;;;8.10;99.90;;;;;;5038038;28;20424;-42
2022/01/04 05:12:14;;;;;;;1.60;1.40;;;8.20;99.90;;;;;;5038068;28;20462;-41
2022/01/04 05:14:46;;;;;;;5.93;1.90;;;8.10;99.90;;;;;;5037972;28;20456;-42
2022/01/04 05:17:13;;;;;;;5.10;1.53;;;8.10;99.90;;;;;;5038072;28;20446;-41
2022/01/04 05:19:40;;;;;;;6.67;2.00;;;8.10;99.90;;;;;;5037819;28;20462;-45
2022/01/04 05:22:09;;;;;;;2.30;1.43;;;8.10;99.90;;;;;;5037928;28;20465;-41
2022/01/04 05:24:36;;;;;;;3.17;1.43;;;8.00;99.90;;;;;;5037961;28;20427;-44
2022/01/04 05:27:05;;;;;;;2.13;1.60;;;8.00;99.90;;;;;;5037817;28;20431;-43
2022/01/04 05:29:32;;;;;;;4.50;1.77;;;8.00;99.90;;;;;;5037928;28;20418;-43
2022/01/04 05:32:03;;;;;;;2.30;1.30;;;8.00;99.90;;;;;;5037773;28;20467;-40
2022/01/04 05:34:29;;;;;;;2.73;1.90;;;8.00;99.90;;;;;;5037634;28;20458;-41
2022/01/04 05:36:56;;;;;;;1.90;1.00;;;8.00;99.90;;;;;;5037714;28;20451;-44
2022/01/04 05:39:23;;;;;;;1.50;1.27;;;8.00;99.90;;;;;;5037892;28;20432;-40
2022/01/04 05:41:49;;;;;;;2.47;1.30;;;8.00;99.90;;;;;;5037181;28;20455;-40
2022/01/04 05:44:17;;;;;;;2.03;1.40;;;8.00;99.90;;;;;;5038026;28;20425;-42
2022/01/04 05:46:44;;;;;;;2.20;1.30;;;8.00;99.90;;;;;;5041478;28;20445;-41
2022/01/04 05:49:11;;;;;;;2.73;1.73;;;8.00;99.90;;;;;;5041525;28;20440;-42
2022/01/04 05:51:37;;;;;;;1.60;1.23;;;8.00;99.90;;;;;;5041314;28;20519;-41
2022/01/04 05:54:04;;;;;;;1.83;1.47;;;8.00;99.90;;;;;;5041372;28;20429;-41
2022/01/04 05:56:31;;;;;;;9.10;1.70;;;8.00;99.90;;;;;;5041383;28;20418;-45
2022/01/04 05:58:58;;;;;;;7.13;1.20;;;8.00;99.90;;;;;;5041411;28;20426;-43
2022/01/04 06:01:26;;;;;;;3.57;1.60;;;8.00;99.90;;;;;;5041379;28;20422;-40
2022/01/04 06:03:55;;;;;;;1.40;1.30;;;8.00;99.90;;;;;;5041192;28;20444;-43
2022/01/04 06:06:22;;;;;;;6.87;1.73;;;8.00;99.90;;;;;;5041088;28;20440;-43
2022/01/04 06:08:51;;;;;;;4.37;1.43;;;8.00;99.90;;;;;;5040930;28;20437;-43
2022/01/04 06:11:55;;;;;;;2.13;1.70;;;8.00;99.90;;;;;;5041047;28;20438;-42
2022/01/04 06:17:11;;;;;;;3.83;1.70;;;8.00;99.90;;;;;;5041035;28;20438;-43
2022/01/04 06:19:39;;;;;;;1.50;1.30;;;8.00;99.90;;;;;;5041115;28;20414;-42
2022/01/04 06:22:06;;;;;;;3.33;1.80;;;8.00;99.90;;;;;;5040925;28;20429;-43
2022/01/04 06:24:33;;;;;;;4.53;2.23;;;8.00;99.90;;;;;;5040708;28;20447;-40
2022/01/04 06:27:00;;;;;;;8.47;2.90;;;8.00;99.90;;;;;;5040696;28;20449;-41
2022/01/04 06:29:31;;;;;;;4.80;2.63;;;8.00;99.90;;;;;;5040714;28;20455;-44
2022/01/04 06:31:57;;;;;;;5.10;2.60;;;8.10;99.90;;;;;;5040592;28;20469;-42
2022/01/04 06:34:25;;;;;;;6.93;3.67;;;8.20;99.90;;;;;;5040524;28;20429;-45
2022/01/04 06:36:55;;;;;;;4.27;3.13;;;8.20;99.90;;;;;;5040605;28;20477;-44
2022/01/04 06:39:30;;;;;;;10.43;2.73;;;8.10;99.90;;;;;;5040646;28;20444;-40
2022/01/04 06:42:00;;;;;;;6.07;2.43;;;8.10;99.90;;;;;;5040407;28;21266;-43
2022/01/04 06:44:27;;;;;;;3.50;2.50;;;8.10;99.90;;;;;;5040355;28;20465;-42
2022/01/04 06:46:54;;;;;;;3.43;2.30;;;8.20;99.90;;;;;;5040311;28;20422;-42
2022/01/04 06:49:23;;;;;;;6.60;2.83;;;8.20;99.90;;;;;;5040414;28;20427;-43
2022/01/04 06:51:52;;;;;;;4.40;3.17;;;8.20;99.90;;;;;;5040052;28;20525;-42
2022/01/04 06:54:20;;;;;;;3.03;1.90;;;8.30;99.90;;;;;;5040243;28;20459;-40
2022/01/04 06:56:50;;;;;;;5.00;3.30;;;8.30;99.90;;;;;;5039663;28;20455;-41
2022/01/04 06:59:18;;;;;;;4.03;2.60;;;8.30;99.90;;;;;;5040179;28;20446;-41
2022/01/04 07:01:45;;;;;;;4.57;2.90;;;8.40;99.90;;;;;;5040039;28;20427;-41
2022/01/04 07:04:12;;;;;;;9.77;3.57;;;8.40;99.90;;;;;;5039839;28;20444;-40
2022/01/04 07:06:40;;;;;;;4.87;3.70;;;8.40;99.90;;;;;;5039962;28;20435;-41
2022/01/04 07:09:11;;;;;;;4.97;2.93;;;8.40;99.90;;;;;;5040084;28;20441;-41
2022/01/04 07:11:38;;;;;;;4.57;3.03;;;8.40;99.90;;;;;;5039679;28;20457;-37
2022/01/04 07:14:08;;;;;;;3.40;3.10;;;8.40;99.90;;;;;;5039772;28;20410;-42
2022/01/04 07:16:35;;;;;;;4.20;2.67;;;8.40;99.90;;;;;;5039711;28;20441;-47
2022/01/04 07:19:04;;;;;;;5.00;2.47;;;8.50;99.90;;;;;;5039712;28;20486;-47
2022/01/04 07:21:30;;;;;;;4.20;3.07;;;8.50;99.90;;;;;;5039670;28;20471;-42
2022/01/04 07:23:57;;;;;;;5.20;3.30;;;8.50;99.90;;;;;;5039583;28;20422;-43
2022/01/04 07:26:25;;;;;;;4.30;2.80;;;8.50;99.90;;;;;;5039126;28;20425;-40
2022/01/04 07:28:52;;;;;;;5.70;3.33;;;8.50;99.90;;;;;;5027050;28;20443;-57
2022/01/04 07:31:19;;;;;;;3.47;2.23;;;8.60;99.90;;;;;;5034902;28;20509;-55
2022/01/04 07:33:46;;;;;;;5.40;3.13;;;8.60;99.90;;;;;;5035200;28;20482;-56
2022/01/04 07:36:15;;;;;;;3.60;2.43;;;8.60;99.90;;;;;;5034697;28;20502;-59
2022/01/04 07:38:43;;;;;;;2.80;2.50;;;8.60;99.90;;;;;;5030416;28;20464;-58
2022/01/04 07:41:10;;;;;;;3.20;1.90;;;8.60;99.90;;;;;;5015720;28;20456;-57
2022/01/04 07:43:38;;;;;;;2.03;1.83;;;8.60;99.90;;;;;;5015228;28;20494;-60
2022/01/04 07:46:05;;;;;;;3.00;2.10;;;8.60;99.90;;;;;;5012515;28;20505;-58
2022/01/04 07:48:32;;;;;;;3.50;1.97;;;8.70;99.90;;;;;;5018821;28;20815;-61
2022/01/04 07:50:59;;;;;;;2.40;2.10;;;8.70;99.90;;;;;;5020006;28;20477;-63
2022/01/04 07:53:26;;;;;;;3.27;1.80;;;8.70;99.90;;;;;;5016078;28;20490;-55
2022/01/04 07:55:53;;;;;;;2.60;1.70;;;8.70;99.90;;;;;;5017262;28;20534;-58
2022/01/04 07:58:19;;;;;;;4.70;1.90;;;8.80;99.90;;;;;;5023493;28;20654;-59
2022/01/04 08:00:47;;;;;;;1.57;1.33;;;8.80;99.90;;;;;;5021114;28;20485;-53
2022/01/04 08:03:14;;;;;;;2.77;2.57;;;8.70;99.90;;;;;;5023226;28;20447;-59
2022/01/04 08:05:41;;;;;;;3.10;2.73;;;8.70;99.90;;;;;;5021816;28;20513;-59
2022/01/04 08:08:08;;;;;;;4.43;2.67;;;8.80;99.90;;;;;;5021048;28;20474;-59
2022/01/04 08:10:35;;;;;;;4.13;2.40;;;8.80;99.90;;;;;;5022340;28;20445;-60
2022/01/04 08:13:02;;;;;;;3.03;2.07;;;8.90;99.90;;;;;;5021694;28;20969;-61
2022/01/04 08:15:29;;;;;;;4.03;2.30;;;8.90;99.90;;;;;;5023415;28;20492;-62
2022/01/04 08:17:57;;;;;;;2.30;2.00;;;8.90;99.90;;;;;;5021774;28;20512;-60
2022/01/04 08:20:24;;;;;;;4.57;2.43;;;9.00;99.90;;;;;;5021931;28;20436;-60
2022/01/04 08:22:51;;;;;;;5.10;2.00;;;9.00;99.90;;;;;;5021979;28;20453;-59
2022/01/04 08:25:18;;;;;;;4.90;2.80;;;9.00;99.90;;;;;;5022254;28;20472;-60
2022/01/04 08:27:44;;;;;;;5.93;2.50;;;9.10;99.90;;;;;;5022494;28;20460;-59
2022/01/04 08:30:13;;;;;;;3.80;2.30;;;9.10;99.90;;;;;;5022248;28;20475;-59
2022/01/04 08:32:40;;;;;;;6.43;3.37;;;9.00;99.90;;;;;;5021965;28;20481;-61
2022/01/04 08:35:09;;;;;;;4.27;2.37;;;9.00;99.90;;;;;;5023115;28;20584;-54
2022/01/04 08:37:36;;;;;;;4.07;2.23;;;8.80;99.90;;;;;;5020073;28;20465;-59
2022/01/04 08:40:05;;;;;;;4.03;2.53;;;8.90;99.90;;;;;;5017185;28;20462;-61
2022/01/04 08:42:33;;;;;;;6.03;3.27;;;8.90;99.90;;;;;;5019147;28;20497;-60
2022/01/04 08:45:00;;;;;;;4.90;2.50;;;8.90;99.90;;;;;;5017624;28;20479;-62
2022/01/04 08:47:27;;;;;;;1.90;1.60;;;8.90;99.90;;;;;;5016516;28;20838;-60
2022/01/04 08:49:54;;;;;;;5.53;2.90;;;9.00;99.90;;;;;;5016935;28;20456;-60
2022/01/04 08:52:22;;;;;;;1.43;1.10;;;9.00;99.90;;;;;;5016719;28;20493;-58
2022/01/04 08:54:49;;;;;;;2.10;1.67;;;9.10;99.90;;;;;;5016189;28;20445;-60
2022/01/04 08:57:16;;;;;;;5.00;2.60;;;9.10;99.90;;;;;;5016107;28;20460;-57
2022/01/04 08:59:43;;;;;;;3.43;1.70;;;9.10;99.90;;;;;;5016316;28;20437;-58
2022/01/04 09:02:09;;;;;;;2.53;1.93;;;9.10;99.90;;;;;;5016542;28;20520;-57
2022/01/04 09:04:36;;;;;;;2.60;1.63;;;9.20;99.90;;;;;;5016520;28;20901;-62
2022/01/04 09:07:04;;;;;;;1.67;1.23;;;9.20;99.90;;;;;;5019131;28;20458;-59
2022/01/04 09:09:32;;;;;;;3.10;1.57;;;9.20;99.90;;;;;;5018497;28;20487;-61
2022/01/04 09:11:59;;;;;;;2.63;1.80;;;9.30;99.90;;;;;;5016577;28;20451;-58
2022/01/04 09:14:29;;;;;;;1.40;1.10;;;9.30;99.90;;;;;;5016063;28;20465;-59
2022/01/04 09:19:40;;;;;;;4.80;1.90;;;9.30;99.90;;;;;;5018668;28;20499;-50
2022/01/04 09:22:07;;;;;;;8.27;2.87;;;9.30;99.90;;;;;;5020305;28;20486;-48
2022/01/04 09:24:37;;;;;;;2.20;1.70;;;9.30;99.90;;;;;;5020501;28;20805;-49
2022/01/04 09:27:06;;;;;;;2.37;1.60;;;9.30;99.90;;;;;;5020049;28;20465;-49
2022/01/04 09:29:33;;;;;;;2.13;1.63;;;9.20;99.90;;;;;;5020420;28;20467;-46
2022/01/04 09:32:01;;;;;;;2.90;1.67;;;9.20;99.90;;;;;;5020987;28;20981;-49
2022/01/04 09:34:28;;;;;;;2.40;1.50;;;9.20;99.90;;;;;;5021627;28;20496;-48
2022/01/04 09:36:55;;;;;;;2.40;1.83;;;9.20;99.90;;;;;;5020140;28;20466;-49
2022/01/04 09:39:24;;;;;;;2.00;1.10;;;9.10;99.90;;;;;;5020080;28;20469;-46
2022/01/04 09:41:55;;;;;;;2.07;1.70;;;9.10;99.90;;;;;;5019741;28;20453;-45
2022/01/04 09:44:25;;;;;;;3.57;1.57;;;9.10;99.90;;;;;;5019190;28;20520;-49
2022/01/04 09:46:51;;;;;;;4.10;1.87;;;9.10;99.90;;;;;;5019555;28;20556;-46
2022/01/04 09:49:18;;;;;;;1.90;1.50;;;9.10;99.90;;;;;;5019138;28;20477;-47
2022/01/04 09:51:45;;;;;;;2.57;1.93;;;9.20;99.90;;;;;;5019562;28;20459;-45
2022/01/04 09:54:12;;;;;;;3.27;1.90;;;9.20;99.90;;;;;;5019188;28;20838;-49
2022/01/04 09:56:39;;;;;;;2.97;1.70;;;9.20;99.90;;;;;;5019562;28;20515;-49
2022/01/04 09:59:07;;;;;;;2.03;1.67;;;9.20;99.90;;;;;;5020595;28;20455;-44
2022/01/04 10:01:36;;;;;;;4.70;2.00;;;9.10;99.90;;;;;;5020070;28;20525;-49
2022/01/04 10:04:04;;;;;;;4.23;2.47;;;9.10;99.90;;;;;;5019265;28;20502;-52
2022/01/04 10:06:31;;;;;;;4.40;1.97;;;9.10;99.90;;;;;;5019641;28;20842;-47
2022/01/04 10:09:00;;;;;;;7.13;4.57;;;9.10;99.90;;;;;;5020093;28;20446;-52
2022/01/04 10:11:31;;;;;;;1.97;1.70;;;9.10;99.90;;;;;;5019455;28;20538;-50
2022/01/04 10:13:59;;;;;;;2.57;1.77;;;9.10;99.90;;;;;;5034900;28;20628;-51
2022/01/04 10:16:27;;;;;;;2.67;1.77;;;9.00;99.90;;;;;;5034916;28;20468;-45
2022/01/04 10:18:54;;;;;;;1.83;1.10;;;9.00;99.90;;;;;;5036083;28;20533;-46
2022/01/04 10:21:21;;;;;;;4.73;2.30;;;8.90;99.90;;;;;;5037174;28;20920;-56
2022/01/04 10:23:54;;;;;;;3.03;2.17;;;9.00;99.90;;;;;;5022539;28;20519;-51
2022/01/04 10:26:30;;;;;;;3.53;2.53;;;9.00;99.90;;;;;;5022938;28;20825;-49
2022/01/04 10:28:56;;;;;;;3.53;1.93;;;9.00;99.90;;;;;;5023172;28;20445;-49
2022/01/04 10:31:23;;;;;;;9.20;1.93;;;8.90;99.90;;;;;;5016815;28;20435;-49
2022/01/04 10:33:56;;;;;;;3.20;2.20;;;8.90;99.90;;;;;;5001684;28;20538;-48
2022/01/04 10:36:25;;;;;;;4.07;2.20;;;8.90;99.90;;;;;;4997402;28;20439;-48
2022/01/04 10:38:52;;;;;;;2.53;1.67;;;8.90;99.90;;;;;;5003217;28;20471;-56
2022/01/04 10:41:23;;;;;;;1.60;1.40;;;8.90;99.90;;;;;;5003084;28;20464;-48
2022/01/04 10:43:53;;;;;;;2.10;1.60;;;8.90;99.90;;;;;;5003289;28;20433;-46
2022/01/04 10:46:31;;;;;;;2.97;2.43;;;8.90;99.90;;;;;;5002064;28;20502;-45
2022/01/04 10:49:01;;;;;;;9.53;1.63;;;8.90;99.90;;;;;;5019975;28;20456;-47
2022/01/04 10:51:30;;;;;;;4.53;1.70;;;8.90;99.90;;;;;;5016747;28;20480;-48
2022/01/04 10:54:00;;;;;;;3.30;1.90;;;8.90;99.90;;;;;;5016729;28;20970;-47
2022/01/04 10:56:31;;;;;;;2.20;1.30;;;8.90;99.90;;;;;;5017252;28;20457;-50
2022/01/04 10:58:58;;;;;;;1.40;1.20;;;8.90;99.90;;;;;;5016618;28;20472;-47
2022/01/04 11:01:27;;;;;;;2.90;1.43;;;8.90;99.90;;;;;;5016096;28;20452;-49
2022/01/04 11:03:56;;;;;;;3.60;2.10;;;8.90;99.90;;;;;;5016405;28;20472;-46
2022/01/04 11:06:28;;;;;;;1.80;1.43;;;8.90;99.90;;;;;;5016935;28;20447;-48
2022/01/04 11:08:55;;;;;;;2.30;1.83;;;8.90;99.90;;;;;;5023993;28;20472;-49
2022/01/04 11:11:22;;;;;;;4.63;1.57;;;8.90;99.90;;;;;;5024712;28;20515;-49
2022/01/04 11:13:51;;;;;;;2.27;1.53;;;8.90;99.90;;;;;;5020030;28;20562;-50
2022/01/04 11:16:19;;;;;;;3.20;1.60;;;9.70;99.90;;;;;;5016196;28;20461;-41
2022/01/04 11:18:51;;;;;;;1.70;1.30;;;9.80;99.90;;;;;;5020077;28;20540;-46
2022/01/04 11:21:21;;;;;;;2.37;1.40;;;9.60;99.90;;;;;;5019918;28;20476;-48
2022/01/04 11:23:50;;;;;;;2.97;1.83;;;9.60;99.90;;;;;;5016431;28;20467;-47
2022/01/04 11:26:17;;;;;;;2.60;1.50;;;9.30;99.90;;;;;;5015503;28;20451;-47
2022/01/04 11:28:45;;;;;;;4.70;2.63;;;9.20;99.90;;;;;;5015477;28;20525;-44
2022/01/04 11:31:24;;;;;;;2.30;1.80;;;9.10;99.90;;;;;;5017030;28;20467;-51
2022/01/04 11:34:00;;;;;;;2.33;1.33;;;9.10;99.90;;;;;;5015277;28;20982;-47
2022/01/04 11:36:30;;;;;;;3.70;1.00;;;9.10;99.90;;;;;;5015229;28;20498;-50
2022/01/04 11:38:58;;;;;;;2.30;1.33;;;8.90;99.90;;;;;;5016092;28;21007;-51
2022/01/04 11:41:39;;;;;;;1.43;1.20;;;8.90;99.90;;;;;;5015879;28;20747;-46
2022/01/04 11:44:17;;;;;;;3.23;1.20;;;8.80;99.90;;;;;;5015770;28;20539;-46
2022/01/04 11:46:43;;;;;;;2.80;1.73;;;8.90;99.90;;;;;;5015476;28;20837;-45
2022/01/04 11:49:12;;;;;;;2.50;0.73;;;8.80;99.90;;;;;;5015398;28;20511;-47
2022/01/04 11:51:43;;;;;;;1.30;1.10;;;8.80;99.90;;;;;;5015615;28;20472;-45
2022/01/04 11:54:19;;;;;;;3.10;2.50;;;8.80;99.90;;;;;;5015816;28;20522;-52
2022/01/04 11:56:52;;;;;;;3.30;1.80;;;8.70;99.90;;;;;;5019082;28;20475;-47
2022/01/04 11:59:21;;;;;;;2.03;1.57;;;8.70;99.90;;;;;;5017703;28;20507;-48
2022/01/04 12:01:48;;;;;;;8.20;2.87;;;8.70;99.90;;;;;;5015395;28;20572;-52
2022/01/04 12:04:40;;;;;;;3.23;2.43;;;8.70;99.90;;;;;;5017368;28;20480;-47
2022/01/04 12:07:07;;;;;;;4.00;1.73;;;8.70;99.90;;;;;;5021240;28;20471;-50
2022/01/04 12:09:35;;;;;;;1.60;1.23;;;8.70;99.90;;;;;;5021919;28;20459;-45
2022/01/04 12:12:02;;;;;;;3.33;2.17;;;8.70;99.90;;;;;;5020921;28;20459;-44
2022/01/04 12:14:30;;;;;;;2.40;1.17;;;8.70;99.90;;;;;;5020206;28;20468;-45
2022/01/04 12:17:03;;;;;;;3.63;1.67;;;8.70;99.90;;;;;;5014943;28;20943;-47
2022/01/04 12:19:46;;;;;;;7.53;4.60;;;8.70;99.90;;;;;;5016222;28;20449;-43
2022/01/04 12:22:13;;;;;;;6.10;2.73;;;8.70;99.90;;;;;;5016561;28;20516;-48
2022/01/04 12:24:46;;;;;;;3.20;1.93;;;8.70;99.90;;;;;;5014900;28;20467;-48
2022/01/04 12:27:14;;;;;;;2.43;1.37;;;8.70;99.90;;;;;;5018648;28;20756;-46
2022/01/04 12:29:41;;;;;;;3.33;2.00;;;8.70;99.90;;;;;;5020788;28;20467;-47
2022/01/04 12:32:19;;;;;;;6.30;2.23;;;8.80;99.90;;;;;;5021194;28;20459;-46
2022/01/04 12:35:01;;;;;;;6.70;3.30;;;8.80;99.90;;;;;;5020365;28;20519;-44
2022/01/04 12:37:29;;;;;;;4.90;2.80;;;8.90;99.90;;;;;;5019976;28;20437;-50
2022/01/04 12:39:58;;;;;;;6.00;3.77;;;8.90;99.90;;;;;;5019664;28;20515;-46
2022/01/04 12:42:25;;;;;;;5.00;2.30;;;8.90;99.90;;;;;;5016887;28;20493;-46
2022/01/04 12:44:57;;;;;;;3.13;1.73;;;8.90;99.90;;;;;;5014527;28;20441;-45
2022/01/04 12:47:25;;;;;;;5.10;2.97;;;8.80;99.90;;;;;;5014801;28;20498;-45
2022/01/04 12:49:52;;;;;;;2.40;2.03;;;8.80;99.90;;;;;;5014880;28;20461;-47
2022/01/04 12:52:21;;;;;;;2.40;1.87;;;8.80;99.90;;;;;;5014683;28;20480;-48
2022/01/04 12:54:48;;;;;;;7.30;3.00;;;8.80;99.90;;;;;;5014684;28;20502;-47
2022/01/04 12:57:18;;;;;;;3.00;2.43;;;8.80;99.90;;;;;;5014970;28;20548;-47
2022/01/04 12:59:46;;;;;;;11.23;4.77;;;8.80;99.90;;;;;;5014751;28;20450;-49
2022/01/04 13:02:16;;;;;;;3.63;2.17;;;8.70;99.90;;;;;;5015122;28;20470;-50
2022/01/04 13:04:46;;;;;;;2.93;2.03;;;8.70;99.90;;;;;;5014751;28;20450;-47
2022/01/04 13:07:19;;;;;;;3.40;2.63;;;8.70;99.90;;;;;;5014663;28;20493;-52
2022/01/04 13:10:05;;;;;;;5.03;2.00;;;8.80;99.90;;;;;;5014566;28;20542;-46
2022/01/04 13:12:36;;;;;;;4.13;2.37;;;8.70;99.90;;;;;;5014316;28;20429;-44